Etusivu
METAR-TAF:

METAR-TAF

Lentoasemat :

Sisseton Municipal Airport

Sisseton, Etelä-Dakota, Yhdysvallat

Leveyspiiri: 45-40-08N, Pituuspiiri: 096-59-29W, korkeus merenpinnasta: 354 m

Tämänhetkinen sää

Tämä raportti tehtiin 1 tunti ja 6 minuuttia sitten, kello 09.56 UTC
Tuuli 6 kn lännestä
Lämpötila 3°C
Kosteus 70%
Ilmanpaine 1019 hPa

METAR: K8D3 260956Z AUTO 26006KT 03/M02 A3010 RMK AO1 SLP195 T00281017

Aika: 06:02 (11:02 UTC)


TAF: puuttuu

Säähavainnot ja -ennusteet yli 4000 lentoasemalta (METAR- ja TAF-raportit).

Käytössä olevat sääasemat on merkitty karttaan keltaisilla ja punaisilla pisteillä.

Aseta hiiri pisteen päälle nähdäksesi sääaseman nimen.

Klikkaa sitten nähdäksesi säähavainnot ja -ennusteet.

Kartan vaihtaminen: klikkaa mustalla rastilla varustettuja vihreitä pisteitä, niin voit zoomata sisään; viivalla varustettua vihreää pistettä, niin voit zoomata ulos tai vihreitä nuolia, niin pääset viereisille kartoille.


METAR-TAF: